Mollusk, Virginia
Current Conditions -  °F | °C
As of 1:35 PM on Saturday 25 Oct 2014 (Local Time) from KW75 Reporting Station
Clear Clear  
Wind Chill: 67°   Ceiling: Unl
Heat Index: 67°   Visibility: 10mi
Dew Point: 42°   Wind: 3mph
Humidity: 41%   Direction: 290°WNW
Pressure: 29.9"   Gusts: NA
Location:  37.73°N, 76.54°W
Report Text: KW75 251735Z AUTO 29003KT 10SM CLR 19/06 A2990 RMK AO1 T01920057
Loading
Personal Weather Stations






























Interactive Weather Map New forecast layout! Learn more

10-Day Weather Forecast

Advertisements
Track Severe Weather on mobile